Edwards AFB, CA

6:40 AM PDT on August 28, 2014 (GMT -0700)
Edwards Air Force Base | Change Station
CLOSE
Current Station
Airport
Location: Edwards AFB,
Elevation: 2313 ft
Nearby Weather Stations

Elev 2313 ft 34.91 °N, 117.88 °W | Updated 42 minutes ago

Clear
Clear
65 °F
Feels Like 65 °F
N
9
Wind Variable Wind from SW

Today
High -- | Low -- °F
--% Chance of Precip.
Yesterday
High -- | Low -- °F
Precip. -- in
6:21 AM 7:23 PM
Waxing Crescent, 8% visible
Pressure 30.00 in
Visibility 90.0 miles
Clouds Clear
Dew Point 41 °F
Humidity 41%
Rainfall 0.00 in
Snow Depth Not available.
UV 0 out of 12
Pollen 9.00 out of 12
Ozone Good
Flu Activity Not available.
METAR KEDW 281258Z 22008KT 90SM CLR 18/05 A3007 RMK AO2A SLP158 T01840050

More Conditions Fewer Conditions

Pressure 30.00 in
Visibility 90.0 miles
Clouds Clear
Dew Point 41 °F
Humidity 41%
Rainfall 0.00 in
Snow Depth Not available.
UV 0 out of 12
Pollen 9.00 out of 12
Ozone Good
Flu Activity Not available.
METAR KEDW 281258Z 22008KT 90SM CLR 18/05 A3007 RMK AO2A SLP158 T01840050

More Conditions Fewer Conditions

10-Day Weather Forecast

Almanac

Astronomy

Aug. 28, 2014 Rise Set
Actual Time 6:21 AM PDT 7:23 PM PDT
Civil Twilight 5:55 AM PDT 7:49 PM PDT
Nautical Twilight 5:24 AM PDT 8:20 PM PDT
Astronomical Twilight 4:52 AM PDT 8:51 PM PDT
Moon 9:09 AM PDT 8:59 PM PDT
Length of Visible Light 13h 53m
Length of Day
13h 01m
Tomorrow will be 2m 4s shorter.
Waxing Crescent, 8% of the Moon is Illuminated
Today
Waxing Crescent
Sep 2
First Quarter
Sep 8
Full
Sep 15
Last Quarter
Sep 24
New

Today's Extremes

State Highs State Lows

Community

WunderPhotos

Upload Photos

1,747,954 photos uploaded!

Nearby

Air Quality

  Air Quality AQ Index Pollutant
Yesterday Moderate
OZONE
Current Good
OZONE
Thursday Good
PM10
Thursday Good
OZONE
Thursday Good
CO
Thursday Good
NO2

Snow Depth

Station Depth Elevation
Leavitt Lake 0 in 9400 ft
Leavitt Meadows 1 in 7200 ft
Summit Meadow 0 in 9122 ft
Monitor Pass 0 in 8350 ft
Blue Lakes 0 in 8000 ft

Earthquake Activity

City Distance Mag. Time & Date
San Fernando, California 54 miles 2.5 4:57 AM PDT
2014-08-26
Minimum magnitude displayed is 2.5.

Coastal Water Temperatures

Place Temperature
No Stations Reporting

Nearby Weather Stations